Time;durP1;ratioP1;P1;durP2;ratioP2;P2;SDS_P1;SDS_P2;PMS_P1;PMS_P2;Temp;Humidity;BMP_temperature;BMP_pressure;BME280_temperature;BME280_humidity;BME280_pressure;Samples;Min_cycle;Max_cycle;Signal;HPM_P1;HPM_P2
2022/09/25 00:00:27;;;;;;;;;;;10.30;99.90;;;;;;5071003;27;20336;-54
2022/09/25 00:03:07;;;;;;;;;;;10.40;99.90;;;;;;5097825;27;20130;-56
2022/09/25 00:05:47;;;;;;;;;;;10.60;99.90;;;;;;5123142;27;19911;-56
2022/09/25 00:08:27;;;;;;;;;;;10.70;99.90;;;;;;5095885;27;20103;-57
2022/09/25 00:11:07;;;;;;;;;;;10.70;99.90;;;;;;5120585;27;19918;-57
2022/09/25 00:13:48;;;;;;;;;;;10.80;99.90;;;;;;5099995;27;19920;-57
2022/09/25 00:16:29;;;;;;;;;;;10.80;99.90;;;;;;5103412;27;19946;-54
2022/09/25 00:22:08;;;;;;;;;;;10.80;99.90;;;;;;5103255;27;20343;-56
2022/09/25 00:24:49;;;;;;;;;;;10.80;99.90;;;;;;5096562;27;19934;-56
2022/09/25 00:27:30;;;;;;;;;;;10.80;99.90;;;;;;5103081;27;19945;-57
2022/09/25 00:30:11;;;;;;;;;;;10.80;99.90;;;;;;5103742;27;20351;-57
2022/09/25 00:32:51;;;;;;;;;;;10.80;99.90;;;;;;5101206;27;19926;-57
2022/09/25 00:35:31;;;;;;;;;;;10.80;99.90;;;;;;5098269;27;19954;-56
2022/09/25 00:38:10;;;;;;;;;;;10.80;99.90;;;;;;5099692;27;19962;-55
2022/09/25 00:40:50;;;;;;;;;;;10.80;99.90;;;;;;5093278;27;20651;-55
2022/09/25 00:43:36;;;;;;;;;;;10.80;99.90;;;;;;5100068;27;19926;-57
2022/09/25 00:46:18;;;;;;;;;;;10.80;99.90;;;;;;5103540;27;19957;-57
2022/09/25 00:48:59;;;;;;;;;;;10.80;99.90;;;;;;5098898;27;19912;-57
2022/09/25 00:51:42;;;;;;;;;;;10.80;99.90;;;;;;5103790;27;20357;-57
2022/09/25 00:54:24;;;;;;;;;;;10.80;99.90;;;;;;5091504;27;20324;-56
2022/09/25 00:57:06;;;;;;;;;;;10.80;99.90;;;;;;5079714;27;19935;-56
2022/09/25 00:59:49;;;;;;;;;;;10.70;99.90;;;;;;5138808;27;19926;-57
2022/09/25 01:02:31;;;;;;;;;;;10.70;99.90;;;;;;5122707;27;19912;-56
2022/09/25 01:05:13;;;;;;;;;;;10.60;99.90;;;;;;5100785;27;20328;-56
2022/09/25 01:07:54;;;;;;;;;;;10.70;99.90;;;;;;5100141;27;19927;-56
2022/09/25 01:10:34;;;;;;;;;;;10.70;99.90;;;;;;5101765;27;19926;-54
2022/09/25 01:13:15;;;;;;;;;;;10.60;99.90;;;;;;5097845;27;19920;-57
2022/09/25 01:15:58;;;;;;;;;;;10.70;99.90;;;;;;5087209;27;19920;-57
2022/09/25 01:18:44;;;;;;;;;;;10.70;99.90;;;;;;5097147;27;19965;-56
2022/09/25 01:21:38;;;;;;;;;;;10.70;99.90;;;;;;5102753;27;19926;-56
2022/09/25 01:24:39;;;;;;;;;;;10.80;99.90;;;;;;5092296;27;20415;-56
2022/09/25 01:27:25;;;;;;;;;;;10.90;99.90;;;;;;5094909;27;19912;-56
2022/09/25 01:30:07;;;;;;;;;;;10.90;99.90;;;;;;5098844;27;19997;-56
2022/09/25 01:32:55;;;;;;;;;;;11.00;99.90;;;;;;5100419;27;19935;-57
2022/09/25 01:35:41;;;;;;;;;;;11.00;99.90;;;;;;5089608;27;19926;-56
2022/09/25 01:38:24;;;;;;;;;;;11.00;99.90;;;;;;5099731;27;19927;-57
2022/09/25 01:41:08;;;;;;;;;;;11.00;99.90;;;;;;5102457;27;20455;-57
2022/09/25 01:43:51;;;;;;;;;;;11.00;99.90;;;;;;5099455;27;19930;-56
2022/09/25 01:46:34;;;;;;;;;;;11.00;99.90;;;;;;5102603;27;20373;-57
2022/09/25 01:49:17;;;;;;;;;;;10.90;99.90;;;;;;5099095;27;19926;-54
2022/09/25 01:51:58;;;;;;;;;;;11.00;99.90;;;;;;5084648;27;19935;-57
2022/09/25 01:54:40;;;;;;;;;;;11.00;99.90;;;;;;5094824;27;19934;-56
2022/09/25 01:57:22;;;;;;;;;;;10.90;99.90;;;;;;5102139;27;19926;-55
2022/09/25 02:00:05;;;;;;;;;;;10.90;99.90;;;;;;5094218;27;19969;-56
2022/09/25 02:02:55;;;;;;;;;;;10.90;99.90;;;;;;5097069;27;19970;-57
2022/09/25 02:05:38;;;;;;;;;;;10.80;99.90;;;;;;5089592;27;19916;-57
2022/09/25 02:08:21;;;;;;;;;;;10.80;99.90;;;;;;5099887;27;19945;-54
2022/09/25 02:11:02;;;;;;;;;;;10.70;99.90;;;;;;5100638;27;19926;-55
2022/09/25 02:13:47;;;;;;;;;;;10.60;99.90;;;;;;5089459;27;19962;-56
2022/09/25 02:16:29;;;;;;;;;;;10.40;99.90;;;;;;5083050;27;20399;-57
2022/09/25 02:22:08;;;;;;;;;;;10.20;99.90;;;;;;5076697;27;19917;-56
2022/09/25 02:24:53;;;;;;;;;;;10.10;99.90;;;;;;5087547;27;19920;-57
2022/09/25 02:27:33;;;;;;;;;;;10.10;99.90;;;;;;5085467;27;19931;-55
2022/09/25 02:30:14;;;;;;;;;;;10.00;99.90;;;;;;5102878;27;20138;-56
2022/09/25 02:32:56;;;;;;;;;;;9.90;99.90;;;;;;5100031;27;20335;-57
2022/09/25 02:35:37;;;;;;;;;;;9.90;99.90;;;;;;5095947;27;19927;-57
2022/09/25 02:38:17;;;;;;;;;;;10.00;99.90;;;;;;5100060;27;20431;-57
2022/09/25 02:41:01;;;;;;;;;;;10.10;99.90;;;;;;5102538;27;19957;-57
2022/09/25 02:43:46;;;;;;;;;;;10.10;99.90;;;;;;5100166;27;19946;-59
2022/09/25 02:46:30;;;;;;;;;;;10.10;99.90;;;;;;5123524;27;19919;-58
2022/09/25 02:49:15;;;;;;;;;;;10.20;99.90;;;;;;5099746;27;20323;-53
2022/09/25 02:51:57;;;;;;;;;;;10.20;99.90;;;;;;5085515;27;19912;-55
2022/09/25 02:54:40;;;;;;;;;;;10.20;99.90;;;;;;5098605;27;20373;-54
2022/09/25 02:57:23;;;;;;;;;;;10.10;99.90;;;;;;5102872;27;19918;-57
2022/09/25 03:00:06;;;;;;;;;;;10.10;99.90;;;;;;5099733;27;20442;-57
2022/09/25 03:02:46;;;;;;;;;;;10.00;99.90;;;;;;5100733;27;20659;-58
2022/09/25 03:05:26;;;;;;;;;;;10.10;99.90;;;;;;5095381;27;19930;-56
2022/09/25 03:11:04;;;;;;;;;;;10.00;99.90;;;;;;5100242;27;19946;-58
2022/09/25 03:13:43;;;;;;;;;;;10.00;99.90;;;;;;5099379;27;19965;-57
2022/09/25 03:16:29;;;;;;;;;;;10.10;99.90;;;;;;5103459;27;20446;-57
2022/09/25 03:19:09;;;;;;;;;;;10.10;99.90;;;;;;5144913;27;19948;-57
2022/09/25 03:21:49;;;;;;;;;;;10.20;99.90;;;;;;5123740;27;20156;-57
2022/09/25 03:24:31;;;;;;;;;;;10.20;99.90;;;;;;5092037;27;19926;-56
2022/09/25 03:27:12;;;;;;;;;;;10.20;99.90;;;;;;5102765;27;20474;-57
2022/09/25 03:29:52;;;;;;;;;;;10.30;99.90;;;;;;5095774;27;19950;-56
2022/09/25 03:32:33;;;;;;;;;;;10.30;99.90;;;;;;5122097;27;19916;-58
2022/09/25 03:35:13;;;;;;;;;;;10.30;99.90;;;;;;5089608;27;20169;-56
2022/09/25 03:37:53;;;;;;;;;;;10.30;99.90;;;;;;5098729;27;19926;-56
2022/09/25 03:40:32;;;;;;;;;;;10.30;99.90;;;;;;5122893;27;19934;-56
2022/09/25 03:43:12;;;;;;;;;;;10.30;99.90;;;;;;5099620;27;20298;-56
2022/09/25 03:45:52;;;;;;;;;;;10.40;99.90;;;;;;5092538;27;19920;-56
2022/09/25 03:48:32;;;;;;;;;;;10.40;99.90;;;;;;5120621;27;19945;-57
2022/09/25 03:51:12;;;;;;;;;;;10.40;99.90;;;;;;5103077;27;19927;-56
2022/09/25 03:53:53;;;;;;;;;;;10.40;99.90;;;;;;5098868;27;19945;-56
2022/09/25 03:56:33;;;;;;;;;;;10.40;99.90;;;;;;5102356;27;19918;-57
2022/09/25 03:59:13;;;;;;;;;;;10.40;99.90;;;;;;5098897;27;19928;-57
2022/09/25 04:01:55;;;;;;;;;;;10.40;99.90;;;;;;5084927;27;19962;-56
2022/09/25 04:04:37;;;;;;;;;;;10.40;99.90;;;;;;5100235;27;19926;-56
2022/09/25 04:07:17;;;;;;;;;;;10.40;99.90;;;;;;5082164;28;19973;-56
2022/09/25 04:09:57;;;;;;;;;;;10.40;99.90;;;;;;5098833;27;20320;-58
2022/09/25 04:12:37;;;;;;;;;;;10.40;99.90;;;;;;5100022;27;19912;-58
2022/09/25 04:15:17;;;;;;;;;;;10.40;99.90;;;;;;5095550;27;19985;-57
2022/09/25 04:17:57;;;;;;;;;;;10.40;99.90;;;;;;5099550;27;19913;-55
2022/09/25 04:20:37;;;;;;;;;;;10.40;99.90;;;;;;5102464;27;19958;-56
2022/09/25 04:23:16;;;;;;;;;;;10.40;99.90;;;;;;5099506;27;20327;-56
2022/09/25 04:25:56;;;;;;;;;;;10.40;99.90;;;;;;5103016;27;19930;-58
2022/09/25 04:28:36;;;;;;;;;;;10.40;99.90;;;;;;5079178;28;19913;-57
2022/09/25 04:31:16;;;;;;;;;;;10.50;99.90;;;;;;5119959;27;19926;-57
2022/09/25 04:33:55;;;;;;;;;;;10.50;99.90;;;;;;5095163;27;19916;-57
2022/09/25 04:36:35;;;;;;;;;;;10.50;99.90;;;;;;5084952;27;20320;-57
2022/09/25 04:39:18;;;;;;;;;;;10.50;99.90;;;;;;5099579;27;20439;-56
2022/09/25 04:41:58;;;;;;;;;;;10.60;99.90;;;;;;5084894;27;20450;-58
2022/09/25 04:44:38;;;;;;;;;;;10.60;99.90;;;;;;5113329;27;19938;-55
2022/09/25 04:47:18;;;;;;;;;;;10.60;99.90;;;;;;5102714;27;19930;-57
2022/09/25 04:49:58;;;;;;;;;;;10.60;99.90;;;;;;5119282;27;19915;-58
2022/09/25 04:52:37;;;;;;;;;;;10.70;99.90;;;;;;5101573;27;19958;-56
2022/09/25 04:55:17;;;;;;;;;;;10.70;99.90;;;;;;5101216;27;20311;-56
2022/09/25 04:57:59;;;;;;;;;;;10.70;99.90;;;;;;5099397;27;19926;-57
2022/09/25 05:00:41;;;;;;;;;;;10.70;99.90;;;;;;5102678;27;19926;-58
2022/09/25 05:03:21;;;;;;;;;;;10.70;99.90;;;;;;5100161;27;19946;-56
2022/09/25 05:06:01;;;;;;;;;;;10.70;99.90;;;;;;5103825;27;19969;-57
2022/09/25 05:08:41;;;;;;;;;;;10.70;99.90;;;;;;5079206;28;19926;-58
2022/09/25 05:11:21;;;;;;;;;;;10.70;99.90;;;;;;5101769;27;19954;-57
2022/09/25 05:14:01;;;;;;;;;;;10.70;99.90;;;;;;5146315;27;20153;-56
2022/09/25 05:16:42;;;;;;;;;;;10.80;99.90;;;;;;5102815;27;20423;-57
2022/09/25 05:19:22;;;;;;;;;;;10.80;99.90;;;;;;5098950;27;19912;-56
2022/09/25 05:22:02;;;;;;;;;;;10.80;99.90;;;;;;5102228;27;19970;-57
2022/09/25 05:24:42;;;;;;;;;;;10.90;99.90;;;;;;5091312;27;19958;-58
2022/09/25 05:27:22;;;;;;;;;;;10.90;99.90;;;;;;5102385;27;19912;-58
2022/09/25 05:30:01;;;;;;;;;;;10.90;99.90;;;;;;5099385;27;20348;-56
2022/09/25 05:32:47;;;;;;;;;;;10.90;99.90;;;;;;5121947;27;20381;-57
2022/09/25 05:35:28;;;;;;;;;;;10.90;99.90;;;;;;5091078;27;19966;-58
2022/09/25 05:38:09;;;;;;;;;;;11.00;99.90;;;;;;5103548;27;19926;-57
2022/09/25 05:40:50;;;;;;;;;;;11.00;99.90;;;;;;5092971;27;19950;-56
2022/09/25 05:43:31;;;;;;;;;;;11.10;99.90;;;;;;5099792;27;19927;-58
2022/09/25 05:46:12;;;;;;;;;;;11.20;99.90;;;;;;5103058;27;19962;-56
2022/09/25 05:48:51;;;;;;;;;;;11.30;99.90;;;;;;5098945;27;20335;-57
2022/09/25 05:51:32;;;;;;;;;;;11.30;99.90;;;;;;5102803;27;19930;-57
2022/09/25 05:54:11;;;;;;;;;;;11.40;99.90;;;;;;5098500;27;19930;-57
2022/09/25 05:56:51;;;;;;;;;;;11.50;99.90;;;;;;5103590;27;19930;-56
2022/09/25 05:59:32;;;;;;;;;;;11.60;99.90;;;;;;5099120;27;19957;-57
2022/09/25 06:02:12;;;;;;;;;;;11.70;99.90;;;;;;5102299;27;19934;-57
2022/09/25 06:04:52;;;;;;;;;;;11.80;99.90;;;;;;5087297;27;19934;-59
2022/09/25 06:07:32;;;;;;;;;;;11.90;99.90;;;;;;5100577;27;19961;-55
2022/09/25 06:10:12;;;;;;;;;;;11.90;99.90;;;;;;5102472;27;19916;-55
2022/09/25 06:12:54;;;;;;;;;;;12.10;99.90;;;;;;5099400;27;20424;-56
2022/09/25 06:15:36;;;;;;;;;;;12.20;99.90;;;;;;5103315;27;20323;-56
2022/09/25 06:18:16;;;;;;;;;;;12.30;99.90;;;;;;5099422;27;19954;-54
2022/09/25 06:21:00;;;;;;;;;;;12.50;99.90;;;;;;5091998;27;20134;-56
2022/09/25 06:23:41;;;;;;;;;;;12.60;99.90;;;;;;5096958;27;20459;-56
2022/09/25 06:26:24;;;;;;;;;;;12.80;99.90;;;;;;5082939;28;19912;-56
2022/09/25 06:29:06;;;;;;;;;;;12.90;99.90;;;;;;5098376;27;19946;-55
2022/09/25 06:31:46;;;;;;;;;;;12.90;99.90;;;;;;5123789;27;19916;-55
2022/09/25 06:34:27;;;;;;;;;;;12.90;99.90;;;;;;5095826;27;19930;-56
2022/09/25 06:37:08;;;;;;;;;;;13.00;99.90;;;;;;5099459;27;20126;-55
2022/09/25 06:39:47;;;;;;;;;;;13.10;99.90;;;;;;5092327;27;20465;-55
2022/09/25 06:42:27;;;;;;;;;;;13.30;99.90;;;;;;5085165;27;19927;-57
2022/09/25 06:45:10;;;;;;;;;;;13.40;99.90;;;;;;5092411;27;19949;-57
2022/09/25 06:47:50;;;;;;;;;;;13.50;99.90;;;;;;5089819;27;20249;-57
2022/09/25 06:50:32;;;;;;;;;;;13.50;99.90;;;;;;5084359;27;19961;-55
2022/09/25 06:53:13;;;;;;;;;;;13.60;99.90;;;;;;5099524;27;19926;-55
2022/09/25 06:55:56;;;;;;;;;;;13.80;99.90;;;;;;5089821;27;19947;-54
2022/09/25 06:58:36;;;;;;;;;;;13.90;99.90;;;;;;5091446;27;19946;-56
2022/09/25 07:01:16;;;;;;;;;;;14.00;99.90;;;;;;5080783;27;19978;-57
2022/09/25 07:03:55;;;;;;;;;;;13.90;99.90;;;;;;5088402;27;20592;-57
2022/09/25 07:06:36;;;;;;;;;;;13.80;99.90;;;;;;5094896;27;20259;-53
2022/09/25 07:09:17;;;;;;;;;;;13.70;99.90;;;;;;5094632;27;19916;-55
2022/09/25 07:11:56;;;;;;;;;;;13.50;99.90;;;;;;5096734;27;20370;-55
2022/09/25 07:14:37;;;;;;;;;;;13.50;99.90;;;;;;5116800;27;19920;-55
2022/09/25 07:17:18;;;;;;;;;;;13.60;99.90;;;;;;5102541;27;19950;-54
2022/09/25 07:19:57;;;;;;;;;;;13.80;99.90;;;;;;5078471;28;20317;-55
2022/09/25 07:22:37;;;;;;;;;;;13.80;99.90;;;;;;5101774;27;19926;-55
2022/09/25 07:25:17;;;;;;;;;;;13.90;99.90;;;;;;5088034;27;19916;-57
2022/09/25 07:27:57;;;;;;;;;;;14.10;99.90;;;;;;5099922;27;19918;-55
2022/09/25 07:30:39;;;;;;;;;;;14.20;99.90;;;;;;5082318;28;19916;-58
2022/09/25 07:33:18;;;;;;;;;;;14.20;99.90;;;;;;5079371;28;19920;-57
2022/09/25 07:36:00;;;;;;;;;;;14.40;99.90;;;;;;5107569;27;19912;-56
2022/09/25 07:38:41;;;;;;;;;;;14.60;99.90;;;;;;5074626;28;19916;-57
2022/09/25 07:41:22;;;;;;;;;;;14.80;99.90;;;;;;5094266;27;19921;-57
2022/09/25 07:44:03;;;;;;;;;;;15.00;99.90;;;;;;5095727;27;19930;-55
2022/09/25 07:46:44;;;;;;;;;;;15.00;99.90;;;;;;5102880;27;19926;-56
2022/09/25 07:49:24;;;;;;;;;;;15.00;99.90;;;;;;5093223;27;19973;-57
2022/09/25 07:52:05;;;;;;;;;;;15.00;99.90;;;;;;5106091;27;19916;-57
2022/09/25 07:54:45;;;;;;;;;;;15.00;99.90;;;;;;5107997;27;19916;-55
2022/09/25 07:57:26;;;;;;;;;;;15.10;99.90;;;;;;5073833;28;19969;-55
2022/09/25 08:00:07;;;;;;;;;;;15.00;99.90;;;;;;5086770;27;20170;-56
2022/09/25 08:02:57;;;;;;;;;;;14.90;99.90;;;;;;5096259;27;19930;-57
2022/09/25 08:05:37;;;;;;;;;;;14.80;99.90;;;;;;5094693;27;19930;-56
2022/09/25 08:08:17;;;;;;;;;;;14.70;99.90;;;;;;5097692;27;19962;-56
2022/09/25 08:11:01;;;;;;;;;;;14.70;99.90;;;;;;5091130;27;19920;-57
2022/09/25 08:13:41;;;;;;;;;;;14.70;99.90;;;;;;5087083;27;19930;-58
2022/09/25 08:16:22;;;;;;;;;;;14.90;99.90;;;;;;5119457;27;19916;-53
2022/09/25 08:19:03;;;;;;;;;;;15.20;99.90;;;;;;5108779;27;19912;-57
2022/09/25 08:21:44;;;;;;;;;;;15.70;99.90;;;;;;5142924;27;19915;-59
2022/09/25 08:24:24;;;;;;;;;;;16.00;99.90;;;;;;5074448;28;20198;-56
2022/09/25 08:27:04;;;;;;;;;;;16.20;99.90;;;;;;5098473;27;19969;-58
2022/09/25 08:29:43;;;;;;;;;;;16.40;99.90;;;;;;5116206;27;19912;-57
2022/09/25 08:32:24;;;;;;;;;;;16.60;99.90;;;;;;5101550;27;19912;-57
2022/09/25 08:35:05;;;;;;;;;;;16.60;99.90;;;;;;5081769;27;19950;-57
2022/09/25 08:37:45;;;;;;;;;;;16.60;99.90;;;;;;5100746;27;20270;-58
2022/09/25 08:40:27;;;;;;;;;;;16.50;99.90;;;;;;5096724;27;19916;-56
2022/09/25 08:43:14;;;;;;;;;;;16.20;99.90;;;;;;5100003;27;19912;-57
2022/09/25 08:49:10;;;;;;;;;;;15.90;99.90;;;;;;5078252;28;20262;-57
2022/09/25 08:51:51;;;;;;;;;;;16.10;99.90;;;;;;5094205;27;19919;-57
2022/09/25 08:54:33;;;;;;;;;;;16.30;99.90;;;;;;5108479;27;19916;-57
2022/09/25 08:57:16;;;;;;;;;;;16.50;99.90;;;;;;5069117;28;20369;-55
2022/09/25 08:59:58;;;;;;;;;;;16.80;99.90;;;;;;5096445;27;20214;-57
2022/09/25 09:02:40;;;;;;;;;;;17.10;99.90;;;;;;5116495;27;20182;-55
2022/09/25 09:05:25;;;;;;;;;;;17.40;99.90;;;;;;5087500;27;19917;-55
2022/09/25 09:08:07;;;;;;;;;;;17.60;99.90;;;;;;5106632;27;19946;-57
2022/09/25 09:10:50;;;;;;;;;;;17.90;99.90;;;;;;5100545;27;19965;-57
2022/09/25 09:13:34;;;;;;;;;;;18.10;99.90;;;;;;5091882;27;19954;-57
2022/09/25 09:16:18;;;;;;;;;;;18.40;99.90;;;;;;5062740;28;19924;-57
2022/09/25 09:18:57;;;;;;;;;;;18.40;99.90;;;;;;5061728;28;19916;-57
2022/09/25 09:21:38;;;;;;;;;;;18.70;99.90;;;;;;5111506;27;19916;-57
2022/09/25 09:24:22;;;;;;;;;;;18.90;99.90;;;;;;5113484;27;19912;-57
2022/09/25 09:27:09;;;;;;;;;;;19.00;99.90;;;;;;5102049;27;19926;-57
2022/09/25 09:29:56;;;;;;;;;;;18.90;99.90;;;;;;5124005;27;19912;-55
2022/09/25 09:32:54;;;;;;;;;;;18.60;99.90;;;;;;5103473;27;19926;-57
2022/09/25 09:35:38;;;;;;;;;;;18.60;99.90;;;;;;5102422;27;19958;-55
2022/09/25 09:38:25;;;;;;;;;;;18.50;99.90;;;;;;5105850;27;19924;-58
2022/09/25 09:41:13;;;;;;;;;;;18.60;99.90;;;;;;5100885;27;19912;-57
2022/09/25 09:44:05;;;;;;;;;;;18.90;99.90;;;;;;5105191;27;19912;-57
2022/09/25 09:46:51;;;;;;;;;;;18.90;99.90;;;;;;5104405;27;19969;-57
2022/09/25 09:49:34;;;;;;;;;;;19.10;99.90;;;;;;5103433;27;19934;-55
2022/09/25 09:52:16;;;;;;;;;;;19.00;99.90;;;;;;5083830;28;19912;-57
2022/09/25 09:54:59;;;;;;;;;;;19.00;99.90;;;;;;5104022;27;20434;-57
2022/09/25 09:57:43;;;;;;;;;;;19.20;99.90;;;;;;5124803;27;20381;-55
2022/09/25 10:00:24;;;;;;;;;;;19.50;99.90;;;;;;5103009;27;20258;-57
2022/09/25 10:03:09;;;;;;;;;;;19.90;99.90;;;;;;5104348;27;20210;-57
2022/09/25 10:05:49;;;;;;;;;;;20.10;99.90;;;;;;5083616;28;19917;-57
2022/09/25 10:08:30;;;;;;;;;;;20.10;99.90;;;;;;5104329;27;19926;-55
2022/09/25 10:11:13;;;;;;;;;;;19.80;99.90;;;;;;5103241;27;20168;-57
2022/09/25 10:13:53;;;;;;;;;;;19.60;99.90;;;;;;5098035;27;20089;-57
2022/09/25 10:16:33;;;;;;;;;;;19.30;99.90;;;;;;5124428;27;19912;-57
2022/09/25 10:19:18;;;;;;;;;;;18.80;99.90;;;;;;5103530;27;19916;-57
2022/09/25 10:21:59;;;;;;;;;;;18.70;99.90;;;;;;5104472;27;19930;-55
2022/09/25 10:24:50;;;;;;;;;;;18.40;99.90;;;;;;5091248;27;20419;-57
2022/09/25 10:27:31;;;;;;;;;;;18.40;99.90;;;;;;5124337;27;19923;-57
2022/09/25 10:30:17;;;;;;;;;;;18.30;99.90;;;;;;5103717;27;19926;-57
2022/09/25 10:33:00;;;;;;;;;;;18.20;99.90;;;;;;5104764;27;19950;-57
2022/09/25 10:35:42;;;;;;;;;;;18.10;99.90;;;;;;5083715;28;19912;-55
2022/09/25 10:38:32;;;;;;;;;;;18.50;99.90;;;;;;5104383;27;19945;-57
2022/09/25 10:41:14;;;;;;;;;;;18.80;99.90;;;;;;5103745;27;19926;-57
2022/09/25 10:43:55;;;;;;;;;;;19.10;99.90;;;;;;5097000;27;19916;-57
2022/09/25 10:52:49;;;;;;;;;;;20.30;99.90;;;;;;5084107;28;19913;-57
2022/09/25 10:55:30;;;;;;;;;;;20.50;99.90;;;;;;5124631;27;19922;-57
2022/09/25 10:58:14;;;;;;;;;;;20.70;99.90;;;;;;5083943;28;19912;-57
2022/09/25 11:00:55;;;;;;;;;;;20.90;99.90;;;;;;5103681;27;19912;-57
2022/09/25 11:03:38;;;;;;;;;;;21.00;99.90;;;;;;5104176;27;19953;-57
2022/09/25 11:06:20;;;;;;;;;;;20.80;99.90;;;;;;5104061;27;19933;-55
2022/09/25 11:09:06;;;;;;;;;;;20.90;99.90;;;;;;5082847;28;19916;-57
2022/09/25 11:11:48;;;;;;;;;;;21.00;99.90;;;;;;5104286;27;19920;-55
2022/09/25 11:14:31;;;;;;;;;;;21.00;99.90;;;;;;5104531;27;19926;-57
2022/09/25 11:17:30;;;;;;;;;;;21.10;99.90;;;;;;5103599;27;20435;-55
2022/09/25 11:20:20;;;;;;;;;;;21.20;99.90;;;;;;5103819;27;20364;-55
2022/09/25 11:23:04;;;;;;;;;;;21.50;99.90;;;;;;5104230;27;19950;-57
2022/09/25 11:25:46;;;;;;;;;;;21.60;99.90;;;;;;5082531;27;19950;-57
2022/09/25 11:28:30;;;;;;;;;;;21.60;99.90;;;;;;5103931;27;19945;-55
2022/09/25 11:31:15;;;;;;;;;;;21.50;99.90;;;;;;5103774;27;20442;-57
2022/09/25 11:34:03;;;;;;;;;;;21.30;99.90;;;;;;5096908;27;19954;-57
2022/09/25 11:36:45;;;;;;;;;;;21.30;99.90;;;;;;5103930;27;19912;-57
2022/09/25 11:42:30;;;;;;;;;;;21.80;99.90;;;;;;5104304;27;19926;-55
2022/09/25 11:45:18;;;;;;;;;;;22.20;99.90;;;;;;5083810;28;19917;-57
2022/09/25 11:48:01;;;;;;;;;;;22.40;99.90;;;;;;5103823;27;19926;-57
2022/09/25 11:50:45;;;;;;;;;;;22.40;99.90;;;;;;5103459;27;19926;-57
2022/09/25 11:53:33;;;;;;;;;;;22.10;99.90;;;;;;5121865;27;19923;-55
2022/09/25 11:56:20;;;;;;;;;;;21.70;99.90;;;;;;5084339;28;19946;-55
2022/09/25 11:59:10;;;;;;;;;;;22.00;99.90;;;;;;5117166;27;19911;-57
2022/09/25 12:01:54;;;;;;;;;;;22.10;97.20;;;;;;5121431;27;19926;-55
2022/09/25 12:04:43;;;;;;;;;;;22.00;97.40;;;;;;5091669;27;20424;-57
2022/09/25 12:07:28;;;;;;;;;;;22.10;97.80;;;;;;5108449;27;19930;-55
2022/09/25 12:10:19;;;;;;;;;;;22.20;96.20;;;;;;5103195;27;19918;-57
2022/09/25 12:13:04;;;;;;;;;;;21.80;96.60;;;;;;5153945;27;19912;-57
2022/09/25 12:15:51;;;;;;;;;;;21.80;97.30;;;;;;5103772;27;20447;-57
2022/09/25 12:18:39;;;;;;;;;;;21.70;98.10;;;;;;5103782;27;20430;-57
2022/09/25 12:21:23;;;;;;;;;;;21.70;97.80;;;;;;5104325;27;19926;-55
2022/09/25 12:24:06;;;;;;;;;;;21.70;98.90;;;;;;5096469;27;19912;-55
2022/09/25 12:26:51;;;;;;;;;;;21.60;99.60;;;;;;5102453;27;19926;-57
2022/09/25 12:29:45;;;;;;;;;;;21.60;99.90;;;;;;5103334;27;19953;-57
2022/09/25 12:32:29;;;;;;;;;;;21.30;99.90;;;;;;5104015;27;19926;-57
2022/09/25 12:35:14;;;;;;;;;;;21.30;99.90;;;;;;5104175;27;19912;-55
2022/09/25 12:38:01;;;;;;;;;;;21.30;99.90;;;;;;5104033;27;19920;-57
2022/09/25 12:40:44;;;;;;;;;;;21.10;99.90;;;;;;5104220;27;19954;-57
2022/09/25 12:43:27;;;;;;;;;;;21.10;99.90;;;;;;5101990;27;19926;-55
2022/09/25 12:46:09;;;;;;;;;;;21.00;99.90;;;;;;5103949;27;19930;-57
2022/09/25 12:48:51;;;;;;;;;;;21.00;99.90;;;;;;5082949;28;20378;-55
2022/09/25 12:51:36;;;;;;;;;;;20.70;99.90;;;;;;5104354;27;19970;-57
2022/09/25 12:54:21;;;;;;;;;;;20.50;99.90;;;;;;5094204;27;19935;-57
2022/09/25 12:57:04;;;;;;;;;;;20.40;99.90;;;;;;5104390;27;19930;-55
2022/09/25 12:59:46;;;;;;;;;;;20.40;99.90;;;;;;5103238;27;19926;-55
2022/09/25 13:02:30;;;;;;;;;;;20.40;99.90;;;;;;5104429;27;20427;-55
2022/09/25 13:05:12;;;;;;;;;;;19.90;99.90;;;;;;5104594;27;19930;-55
2022/09/25 13:07:55;;;;;;;;;;;19.50;99.90;;;;;;5104016;27;19935;-57
2022/09/25 13:10:38;;;;;;;;;;;19.20;99.90;;;;;;5103061;27;19912;-57
2022/09/25 13:13:23;;;;;;;;;;;18.90;99.90;;;;;;5102482;27;19938;-55
2022/09/25 13:16:04;;;;;;;;;;;18.60;99.90;;;;;;5104185;27;20435;-54
2022/09/25 13:18:48;;;;;;;;;;;18.50;99.90;;;;;;5103857;27;19953;-55
2022/09/25 13:21:31;;;;;;;;;;;18.40;99.90;;;;;;5103449;27;20044;-57
2022/09/25 13:24:13;;;;;;;;;;;18.50;99.90;;;;;;5095054;27;19962;-57
2022/09/25 13:26:54;;;;;;;;;;;18.50;99.90;;;;;;5102378;27;19926;-57
2022/09/25 13:29:37;;;;;;;;;;;18.60;99.90;;;;;;5123099;27;20351;-55
2022/09/25 13:32:18;;;;;;;;;;;18.60;99.90;;;;;;5099081;27;19915;-55
2022/09/25 13:35:02;;;;;;;;;;;18.60;99.90;;;;;;5066661;27;19982;-57
2022/09/25 13:37:42;;;;;;;;;;;18.50;99.90;;;;;;5143671;27;19925;-55
2022/09/25 13:43:23;;;;;;;;;;;18.40;99.90;;;;;;5100156;27;19927;-57
2022/09/25 13:46:22;;;;;;;;;;;18.30;99.90;;;;;;5082928;28;19926;-57
2022/09/25 13:49:32;;;;;;;;;;;18.20;99.90;;;;;;5103680;27;19945;-57
2022/09/25 13:52:26;;;;;;;;;;;18.00;99.90;;;;;;5103836;27;19926;-56
2022/09/25 13:55:19;;;;;;;;;;;17.80;99.90;;;;;;5104245;27;20073;-55
2022/09/25 13:58:04;;;;;;;;;;;17.70;99.90;;;;;;5104201;27;19946;-55
2022/09/25 14:00:56;;;;;;;;;;;17.70;99.90;;;;;;5123694;27;19916;-57
2022/09/25 14:03:38;;;;;;;;;;;17.60;99.90;;;;;;5099956;27;20435;-56
2022/09/25 14:06:20;;;;;;;;;;;17.50;99.90;;;;;;5083615;28;20386;-57
2022/09/25 14:09:06;;;;;;;;;;;17.50;99.90;;;;;;5102246;27;20346;-55
2022/09/25 14:11:51;;;;;;;;;;;17.50;99.90;;;;;;5145004;27;19919;-56
2022/09/25 14:14:32;;;;;;;;;;;17.60;99.90;;;;;;5111106;27;19916;-55
2022/09/25 14:17:14;;;;;;;;;;;17.40;99.90;;;;;;5098762;27;19934;-55
2022/09/25 14:19:56;;;;;;;;;;;17.20;99.90;;;;;;5079565;28;19912;-57
2022/09/25 14:22:43;;;;;;;;;;;16.90;99.90;;;;;;5081530;28;19912;-57
2022/09/25 14:25:26;;;;;;;;;;;16.70;99.90;;;;;;5093988;27;19913;-57
2022/09/25 14:28:17;;;;;;;;;;;16.60;99.90;;;;;;5084883;27;19926;-57
2022/09/25 14:31:06;;;;;;;;;;;16.60;99.90;;;;;;5101746;27;20091;-57
2022/09/25 14:34:00;;;;;;;;;;;16.70;99.90;;;;;;5116877;27;19920;-57
2022/09/25 14:36:48;;;;;;;;;;;16.80;99.90;;;;;;5075868;28;19916;-55
2022/09/25 14:39:35;;;;;;;;;;;16.90;99.90;;;;;;5086370;27;20435;-57
2022/09/25 14:42:39;;;;;;;;;;;16.90;99.90;;;;;;5086245;27;19931;-57
2022/09/25 14:45:35;;;;;;;;;;;16.90;99.90;;;;;;5101936;27;19961;-54
2022/09/25 14:48:17;;;;;;;;;;;16.70;99.90;;;;;;5083408;28;20378;-57
2022/09/25 14:50:59;;;;;;;;;;;16.30;99.90;;;;;;5120860;27;19916;-53
2022/09/25 14:53:41;;;;;;;;;;;15.90;99.90;;;;;;5077598;28;20387;-56
2022/09/25 14:56:23;;;;;;;;;;;15.60;99.90;;;;;;5103745;27;20311;-56
2022/09/25 14:59:09;;;;;;;;;;;15.30;99.90;;;;;;5083022;28;19917;-54
2022/09/25 15:01:51;;;;;;;;;;;15.10;99.90;;;;;;5125459;27;19915;-56
2022/09/25 15:04:32;;;;;;;;;;;15.00;99.90;;;;;;5113198;27;19912;-55
2022/09/25 15:07:15;;;;;;;;;;;15.00;99.90;;;;;;5105077;27;19913;-56
2022/09/25 15:09:56;;;;;;;;;;;14.80;99.90;;;;;;5083072;28;19913;-55
2022/09/25 15:12:44;;;;;;;;;;;14.80;99.90;;;;;;5104210;27;19953;-56
2022/09/25 15:15:24;;;;;;;;;;;14.50;99.90;;;;;;5106818;27;20332;-55
2022/09/25 15:18:09;;;;;;;;;;;14.10;99.90;;;;;;5122535;27;19928;-54
2022/09/25 15:20:49;;;;;;;;;;;13.80;99.90;;;;;;5080309;28;19913;-56
2022/09/25 15:23:29;;;;;;;;;;;13.60;99.90;;;;;;5099082;27;19926;-56
2022/09/25 15:26:15;;;;;;;;;;;13.50;99.90;;;;;;5068309;28;19917;-55
2022/09/25 15:28:56;;;;;;;;;;;13.40;99.90;;;;;;5081333;28;19912;-56
2022/09/25 15:31:36;;;;;;;;;;;13.40;99.90;;;;;;5124502;27;20373;-55
2022/09/25 15:34:21;;;;;;;;;;;13.40;99.90;;;;;;5104007;27;19930;-57
2022/09/25 15:37:19;;;;;;;;;;;13.30;99.90;;;;;;5105351;27;19926;-53
2022/09/25 15:40:01;;;;;;;;;;;13.30;99.90;;;;;;5103299;27;19912;-56
2022/09/25 15:42:43;;;;;;;;;;;13.20;99.90;;;;;;5065060;28;19917;-56
2022/09/25 15:45:41;;;;;;;;;;;13.10;99.90;;;;;;5096848;27;19912;-56
2022/09/25 15:48:24;;;;;;;;;;;13.20;99.90;;;;;;5102633;27;20381;-57
2022/09/25 15:51:13;;;;;;;;;;;13.20;99.90;;;;;;5101754;27;19965;-55
2022/09/25 15:53:55;;;;;;;;;;;13.20;99.90;;;;;;5077637;28;19916;-56
2022/09/25 15:56:38;;;;;;;;;;;13.30;99.90;;;;;;5096271;27;20327;-54
2022/09/25 15:59:20;;;;;;;;;;;13.20;99.90;;;;;;5059665;28;20369;-55
2022/09/25 16:05:08;;;;;;;;;;;13.20;99.90;;;;;;5102283;27;19926;-54
2022/09/25 16:07:49;;;;;;;;;;;13.20;99.90;;;;;;5106498;27;19926;-57
2022/09/25 16:10:32;;;;;;;;;;;13.10;99.90;;;;;;5097986;27;19950;-56
2022/09/25 16:13:19;;;;;;;;;;;12.90;99.90;;;;;;5115511;27;19923;-56